sensor_id;sensor_type;location;lat;lon;timestamp;P1;durP1;ratioP1;P2;durP2;ratioP2
5718;SDS011;2884;47.734;9.244;2022-12-05T00:00:56;13.65;;;9.55;;
5718;SDS011;2884;47.734;9.244;2022-12-05T00:03:22;14.00;;;10.07;;
5718;SDS011;2884;47.734;9.244;2022-12-05T00:05:48;15.13;;;8.30;;
5718;SDS011;2884;47.734;9.244;2022-12-05T00:08:13;11.93;;;8.37;;
5718;SDS011;2884;47.734;9.244;2022-12-05T00:10:39;12.63;;;8.73;;
5718;SDS011;2884;47.734;9.244;2022-12-05T00:13:04;12.17;;;8.17;;
5718;SDS011;2884;47.734;9.244;2022-12-05T00:15:30;10.20;;;6.90;;
5718;SDS011;2884;47.734;9.244;2022-12-05T00:17:56;11.33;;;7.80;;
5718;SDS011;2884;47.734;9.244;2022-12-05T00:20:22;14.18;;;7.75;;
5718;SDS011;2884;47.734;9.244;2022-12-05T00:22:47;10.13;;;7.53;;
5718;SDS011;2884;47.734;9.244;2022-12-05T00:25:13;10.30;;;7.30;;
5718;SDS011;2884;47.734;9.244;2022-12-05T00:27:39;13.77;;;7.67;;
5718;SDS011;2884;47.734;9.244;2022-12-05T00:30:05;11.47;;;7.80;;
5718;SDS011;2884;47.734;9.244;2022-12-05T00:32:30;12.75;;;7.60;;
5718;SDS011;2884;47.734;9.244;2022-12-05T00:34:56;11.50;;;7.70;;
5718;SDS011;2884;47.734;9.244;2022-12-05T00:37:22;11.67;;;7.70;;
5718;SDS011;2884;47.734;9.244;2022-12-05T00:39:48;11.13;;;6.75;;
5718;SDS011;2884;47.734;9.244;2022-12-05T00:42:14;13.33;;;8.50;;
5718;SDS011;2884;47.734;9.244;2022-12-05T00:44:39;11.03;;;7.80;;
5718;SDS011;2884;47.734;9.244;2022-12-05T00:47:05;14.50;;;9.00;;
5718;SDS011;2884;47.734;9.244;2022-12-05T00:49:31;16.43;;;9.97;;
5718;SDS011;2884;47.734;9.244;2022-12-05T00:51:56;17.40;;;10.67;;
5718;SDS011;2884;47.734;9.244;2022-12-05T00:54:22;15.80;;;9.67;;
5718;SDS011;2884;47.734;9.244;2022-12-05T00:56:47;17.53;;;10.60;;
5718;SDS011;2884;47.734;9.244;2022-12-05T00:59:15;18.47;;;11.33;;
5718;SDS011;2884;47.734;9.244;2022-12-05T01:01:42;19.70;;;11.32;;
5718;SDS011;2884;47.734;9.244;2022-12-05T01:04:09;16.58;;;10.40;;
5718;SDS011;2884;47.734;9.244;2022-12-05T01:06:40;15.88;;;10.07;;
5718;SDS011;2884;47.734;9.244;2022-12-05T01:09:06;16.05;;;10.50;;
5718;SDS011;2884;47.734;9.244;2022-12-05T01:11:33;15.13;;;9.85;;
5718;SDS011;2884;47.734;9.244;2022-12-05T01:13:58;18.67;;;10.87;;
5718;SDS011;2884;47.734;9.244;2022-12-05T01:16:25;19.23;;;11.53;;
5718;SDS011;2884;47.734;9.244;2022-12-05T01:18:53;17.33;;;10.38;;
5718;SDS011;2884;47.734;9.244;2022-12-05T01:21:20;15.18;;;10.35;;
5718;SDS011;2884;47.734;9.244;2022-12-05T01:23:45;16.53;;;10.50;;
5718;SDS011;2884;47.734;9.244;2022-12-05T01:26:12;16.05;;;9.93;;
5718;SDS011;2884;47.734;9.244;2022-12-05T01:28:39;22.88;;;12.52;;
5718;SDS011;2884;47.734;9.244;2022-12-05T01:31:05;15.30;;;10.07;;
5718;SDS011;2884;47.734;9.244;2022-12-05T01:33:33;15.02;;;9.15;;
5718;SDS011;2884;47.734;9.244;2022-12-05T01:35:58;16.55;;;9.30;;
5718;SDS011;2884;47.734;9.244;2022-12-05T01:38:24;15.80;;;9.97;;
5718;SDS011;2884;47.734;9.244;2022-12-05T01:40:58;19.80;;;10.40;;
5718;SDS011;2884;47.734;9.244;2022-12-05T01:43:24;16.88;;;10.70;;
5718;SDS011;2884;47.734;9.244;2022-12-05T01:45:50;17.00;;;10.50;;
5718;SDS011;2884;47.734;9.244;2022-12-05T01:48:18;18.75;;;11.00;;
5718;SDS011;2884;47.734;9.244;2022-12-05T01:50:45;17.27;;;10.48;;
5718;SDS011;2884;47.734;9.244;2022-12-05T01:53:12;15.05;;;8.93;;
5718;SDS011;2884;47.734;9.244;2022-12-05T01:55:37;14.27;;;9.47;;
5718;SDS011;2884;47.734;9.244;2022-12-05T01:58:04;15.97;;;9.00;;
5718;SDS011;2884;47.734;9.244;2022-12-05T02:00:30;18.42;;;10.73;;
5718;SDS011;2884;47.734;9.244;2022-12-05T02:03:01;17.90;;;10.87;;
5718;SDS011;2884;47.734;9.244;2022-12-05T02:05:31;19.50;;;11.55;;
5718;SDS011;2884;47.734;9.244;2022-12-05T02:07:58;16.02;;;10.35;;
5718;SDS011;2884;47.734;9.244;2022-12-05T02:10:25;16.13;;;9.93;;
5718;SDS011;2884;47.734;9.244;2022-12-05T02:12:52;15.77;;;10.20;;
5718;SDS011;2884;47.734;9.244;2022-12-05T02:18:08;16.92;;;10.80;;
5718;SDS011;2884;47.734;9.244;2022-12-05T02:20:46;21.05;;;11.10;;
5718;SDS011;2884;47.734;9.244;2022-12-05T02:28:52;17.40;;;11.70;;
5718;SDS011;2884;47.734;9.244;2022-12-05T02:32:09;16.85;;;10.18;;
5718;SDS011;2884;47.734;9.244;2022-12-05T02:34:33;18.25;;;9.93;;
5718;SDS011;2884;47.734;9.244;2022-12-05T02:37:07;16.60;;;10.48;;
5718;SDS011;2884;47.734;9.244;2022-12-05T02:39:45;15.90;;;10.30;;
5718;SDS011;2884;47.734;9.244;2022-12-05T02:42:30;17.02;;;10.48;;
5718;SDS011;2884;47.734;9.244;2022-12-05T02:45:01;19.73;;;10.15;;
5718;SDS011;2884;47.734;9.244;2022-12-05T02:47:32;18.02;;;10.70;;
5718;SDS011;2884;47.734;9.244;2022-12-05T02:50:02;18.15;;;10.95;;
5718;SDS011;2884;47.734;9.244;2022-12-05T02:52:29;20.50;;;11.52;;
5718;SDS011;2884;47.734;9.244;2022-12-05T02:54:55;20.75;;;11.75;;
5718;SDS011;2884;47.734;9.244;2022-12-05T02:57:21;17.43;;;10.50;;
5718;SDS011;2884;47.734;9.244;2022-12-05T02:59:49;17.35;;;11.25;;
5718;SDS011;2884;47.734;9.244;2022-12-05T03:02:22;16.25;;;10.38;;
5718;SDS011;2884;47.734;9.244;2022-12-05T03:04:52;16.88;;;9.85;;
5718;SDS011;2884;47.734;9.244;2022-12-05T03:07:19;14.35;;;9.73;;
5718;SDS011;2884;47.734;9.244;2022-12-05T03:09:50;17.33;;;10.90;;
5718;SDS011;2884;47.734;9.244;2022-12-05T03:12:31;17.45;;;11.23;;
5718;SDS011;2884;47.734;9.244;2022-12-05T03:15:02;20.48;;;10.73;;
5718;SDS011;2884;47.734;9.244;2022-12-05T03:17:59;17.20;;;10.50;;
5718;SDS011;2884;47.734;9.244;2022-12-05T03:20:51;14.93;;;9.35;;
5718;SDS011;2884;47.734;9.244;2022-12-05T03:23:23;17.25;;;10.23;;
5718;SDS011;2884;47.734;9.244;2022-12-05T03:31:14;15.27;;;10.23;;
5718;SDS011;2884;47.734;9.244;2022-12-05T03:33:44;15.63;;;10.10;;
5718;SDS011;2884;47.734;9.244;2022-12-05T03:36:14;18.60;;;11.00;;
5718;SDS011;2884;47.734;9.244;2022-12-05T03:38:57;15.85;;;10.73;;
5718;SDS011;2884;47.734;9.244;2022-12-05T03:41:41;15.02;;;9.80;;
5718;SDS011;2884;47.734;9.244;2022-12-05T03:44:19;16.20;;;10.15;;
5718;SDS011;2884;47.734;9.244;2022-12-05T03:49:33;17.85;;;10.73;;
5718;SDS011;2884;47.734;9.244;2022-12-05T03:54:57;20.50;;;10.73;;
5718;SDS011;2884;47.734;9.244;2022-12-05T03:57:30;16.58;;;10.23;;
5718;SDS011;2884;47.734;9.244;2022-12-05T04:00:16;17.42;;;10.52;;
5718;SDS011;2884;47.734;9.244;2022-12-05T04:02:45;17.27;;;10.30;;
5718;SDS011;2884;47.734;9.244;2022-12-05T04:05:24;17.13;;;10.23;;
5718;SDS011;2884;47.734;9.244;2022-12-05T04:08:00;19.08;;;10.25;;
5718;SDS011;2884;47.734;9.244;2022-12-05T04:10:29;17.67;;;10.38;;
5718;SDS011;2884;47.734;9.244;2022-12-05T04:12:57;16.77;;;11.20;;
5718;SDS011;2884;47.734;9.244;2022-12-05T04:15:43;20.38;;;10.88;;
5718;SDS011;2884;47.734;9.244;2022-12-05T04:18:29;18.10;;;10.95;;
5718;SDS011;2884;47.734;9.244;2022-12-05T04:20:56;20.00;;;10.75;;
5718;SDS011;2884;47.734;9.244;2022-12-05T04:23:41;18.02;;;11.43;;
5718;SDS011;2884;47.734;9.244;2022-12-05T04:26:10;15.40;;;10.27;;
5718;SDS011;2884;47.734;9.244;2022-12-05T04:28:53;19.48;;;10.20;;
5718;SDS011;2884;47.734;9.244;2022-12-05T04:31:57;17.60;;;11.55;;
5718;SDS011;2884;47.734;9.244;2022-12-05T04:34:15;17.58;;;10.68;;
5718;SDS011;2884;47.734;9.244;2022-12-05T04:36:44;19.45;;;10.85;;
5718;SDS011;2884;47.734;9.244;2022-12-05T04:39:19;20.65;;;10.85;;
5718;SDS011;2884;47.734;9.244;2022-12-05T04:42:11;17.73;;;11.02;;
5718;SDS011;2884;47.734;9.244;2022-12-05T04:44:54;19.08;;;11.50;;
5718;SDS011;2884;47.734;9.244;2022-12-05T04:47:23;17.65;;;10.25;;
5718;SDS011;2884;47.734;9.244;2022-12-05T04:49:52;20.42;;;10.68;;
5718;SDS011;2884;47.734;9.244;2022-12-05T04:52:18;21.73;;;11.30;;
5718;SDS011;2884;47.734;9.244;2022-12-05T04:54:49;16.58;;;11.57;;
5718;SDS011;2884;47.734;9.244;2022-12-05T04:57:26;15.50;;;10.48;;
5718;SDS011;2884;47.734;9.244;2022-12-05T04:59:53;15.93;;;10.65;;
5718;SDS011;2884;47.734;9.244;2022-12-05T05:02:20;17.30;;;11.90;;
5718;SDS011;2884;47.734;9.244;2022-12-05T05:04:51;16.85;;;10.95;;
5718;SDS011;2884;47.734;9.244;2022-12-05T05:07:19;20.83;;;10.90;;
5718;SDS011;2884;47.734;9.244;2022-12-05T05:09:47;17.00;;;11.40;;
5718;SDS011;2884;47.734;9.244;2022-12-05T05:12:14;20.45;;;11.98;;
5718;SDS011;2884;47.734;9.244;2022-12-05T05:14:40;18.73;;;11.37;;
5718;SDS011;2884;47.734;9.244;2022-12-05T05:17:06;16.87;;;11.50;;
5718;SDS011;2884;47.734;9.244;2022-12-05T05:19:31;19.37;;;11.13;;
5718;SDS011;2884;47.734;9.244;2022-12-05T05:21:57;19.37;;;12.47;;
5718;SDS011;2884;47.734;9.244;2022-12-05T05:24:22;17.33;;;11.30;;
5718;SDS011;2884;47.734;9.244;2022-12-05T05:26:49;18.13;;;10.75;;
5718;SDS011;2884;47.734;9.244;2022-12-05T05:29:15;18.13;;;11.47;;
5718;SDS011;2884;47.734;9.244;2022-12-05T05:31:42;18.83;;;12.48;;
5718;SDS011;2884;47.734;9.244;2022-12-05T05:34:08;18.53;;;11.53;;
5718;SDS011;2884;47.734;9.244;2022-12-05T05:36:34;19.13;;;11.65;;
5718;SDS011;2884;47.734;9.244;2022-12-05T05:39:00;19.10;;;11.53;;
5718;SDS011;2884;47.734;9.244;2022-12-05T05:41:30;16.30;;;11.07;;
5718;SDS011;2884;47.734;9.244;2022-12-05T05:43:57;18.02;;;11.68;;
5718;SDS011;2884;47.734;9.244;2022-12-05T05:46:25;19.95;;;12.07;;
5718;SDS011;2884;47.734;9.244;2022-12-05T05:48:51;21.52;;;11.95;;
5718;SDS011;2884;47.734;9.244;2022-12-05T05:51:18;16.13;;;10.38;;
5718;SDS011;2884;47.734;9.244;2022-12-05T05:53:43;16.77;;;10.65;;
5718;SDS011;2884;47.734;9.244;2022-12-05T05:56:10;18.30;;;11.43;;
5718;SDS011;2884;47.734;9.244;2022-12-05T05:58:38;17.95;;;10.98;;
5718;SDS011;2884;47.734;9.244;2022-12-05T06:01:13;18.80;;;11.90;;
5718;SDS011;2884;47.734;9.244;2022-12-05T06:03:41;16.85;;;11.05;;
5718;SDS011;2884;47.734;9.244;2022-12-05T06:06:09;17.90;;;10.87;;
5718;SDS011;2884;47.734;9.244;2022-12-05T06:08:36;17.25;;;11.70;;
5718;SDS011;2884;47.734;9.244;2022-12-05T06:11:04;16.67;;;10.20;;
5718;SDS011;2884;47.734;9.244;2022-12-05T06:13:33;15.27;;;10.70;;
5718;SDS011;2884;47.734;9.244;2022-12-05T06:15:59;22.60;;;11.67;;
5718;SDS011;2884;47.734;9.244;2022-12-05T06:18:25;15.50;;;10.02;;
5718;SDS011;2884;47.734;9.244;2022-12-05T06:20:55;17.33;;;10.40;;
5718;SDS011;2884;47.734;9.244;2022-12-05T06:23:21;16.13;;;10.25;;
5718;SDS011;2884;47.734;9.244;2022-12-05T06:25:49;15.32;;;10.32;;
5718;SDS011;2884;47.734;9.244;2022-12-05T06:28:16;17.48;;;10.77;;
5718;SDS011;2884;47.734;9.244;2022-12-05T06:30:42;20.50;;;11.80;;
5718;SDS011;2884;47.734;9.244;2022-12-05T06:33:08;22.38;;;13.02;;
5718;SDS011;2884;47.734;9.244;2022-12-05T06:35:34;17.33;;;11.53;;
5718;SDS011;2884;47.734;9.244;2022-12-05T06:37:59;19.30;;;11.00;;
5718;SDS011;2884;47.734;9.244;2022-12-05T06:40:25;20.90;;;11.73;;
5718;SDS011;2884;47.734;9.244;2022-12-05T06:42:50;16.50;;;10.57;;
5718;SDS011;2884;47.734;9.244;2022-12-05T06:45:16;16.30;;;10.30;;
5718;SDS011;2884;47.734;9.244;2022-12-05T06:47:42;18.73;;;10.17;;
5718;SDS011;2884;47.734;9.244;2022-12-05T06:50:07;16.07;;;10.83;;
5718;SDS011;2884;47.734;9.244;2022-12-05T06:52:33;17.00;;;11.20;;
5718;SDS011;2884;47.734;9.244;2022-12-05T06:54:59;24.83;;;12.97;;
5718;SDS011;2884;47.734;9.244;2022-12-05T06:57:24;19.00;;;12.47;;
5718;SDS011;2884;47.734;9.244;2022-12-05T06:59:51;18.83;;;12.25;;
5718;SDS011;2884;47.734;9.244;2022-12-05T07:02:37;17.33;;;11.65;;
5718;SDS011;2884;47.734;9.244;2022-12-05T07:05:02;21.97;;;13.50;;
5718;SDS011;2884;47.734;9.244;2022-12-05T07:07:28;21.50;;;13.47;;
5718;SDS011;2884;47.734;9.244;2022-12-05T07:09:54;19.17;;;12.67;;
5718;SDS011;2884;47.734;9.244;2022-12-05T07:12:19;20.30;;;12.50;;
5718;SDS011;2884;47.734;9.244;2022-12-05T07:14:45;16.97;;;11.47;;
5718;SDS011;2884;47.734;9.244;2022-12-05T07:17:12;19.65;;;11.95;;
5718;SDS011;2884;47.734;9.244;2022-12-05T07:19:37;15.93;;;11.73;;
5718;SDS011;2884;47.734;9.244;2022-12-05T07:22:03;20.70;;;12.90;;
5718;SDS011;2884;47.734;9.244;2022-12-05T07:24:29;16.52;;;11.55;;
5718;SDS011;2884;47.734;9.244;2022-12-05T07:26:54;19.43;;;12.20;;
5718;SDS011;2884;47.734;9.244;2022-12-05T07:29:20;21.33;;;12.67;;
5718;SDS011;2884;47.734;9.244;2022-12-05T07:31:45;20.47;;;12.43;;
5718;SDS011;2884;47.734;9.244;2022-12-05T07:34:11;20.07;;;11.77;;
5718;SDS011;2884;47.734;9.244;2022-12-05T07:36:36;17.53;;;11.43;;
5718;SDS011;2884;47.734;9.244;2022-12-05T07:39:02;21.67;;;12.73;;
5718;SDS011;2884;47.734;9.244;2022-12-05T07:41:28;19.37;;;12.10;;
5718;SDS011;2884;47.734;9.244;2022-12-05T07:43:55;19.67;;;12.55;;
5718;SDS011;2884;47.734;9.244;2022-12-05T07:46:22;21.30;;;13.00;;
5718;SDS011;2884;47.734;9.244;2022-12-05T07:48:51;19.85;;;13.75;;
5718;SDS011;2884;47.734;9.244;2022-12-05T07:51:17;21.05;;;12.63;;
5718;SDS011;2884;47.734;9.244;2022-12-05T07:53:43;26.42;;;14.07;;
5718;SDS011;2884;47.734;9.244;2022-12-05T07:56:11;18.42;;;12.43;;
5718;SDS011;2884;47.734;9.244;2022-12-05T07:58:41;23.30;;;13.63;;
5718;SDS011;2884;47.734;9.244;2022-12-05T08:01:08;21.30;;;12.52;;
5718;SDS011;2884;47.734;9.244;2022-12-05T08:03:34;23.25;;;12.63;;
5718;SDS011;2884;47.734;9.244;2022-12-05T08:06:08;18.30;;;12.10;;
5718;SDS011;2884;47.734;9.244;2022-12-05T08:08:36;20.30;;;12.20;;
5718;SDS011;2884;47.734;9.244;2022-12-05T08:11:11;19.60;;;12.83;;
5718;SDS011;2884;47.734;9.244;2022-12-05T08:13:38;18.17;;;11.70;;
5718;SDS011;2884;47.734;9.244;2022-12-05T08:16:05;19.65;;;12.90;;
5718;SDS011;2884;47.734;9.244;2022-12-05T08:18:33;22.95;;;12.98;;
5718;SDS011;2884;47.734;9.244;2022-12-05T08:21:02;35.83;;;15.27;;
5718;SDS011;2884;47.734;9.244;2022-12-05T08:23:32;27.50;;;14.20;;
5718;SDS011;2884;47.734;9.244;2022-12-05T08:26:01;32.90;;;14.63;;
5718;SDS011;2884;47.734;9.244;2022-12-05T08:28:30;20.40;;;13.52;;
5718;SDS011;2884;47.734;9.244;2022-12-05T08:31:02;20.17;;;12.60;;
5718;SDS011;2884;47.734;9.244;2022-12-05T08:33:28;17.35;;;11.40;;
5718;SDS011;2884;47.734;9.244;2022-12-05T08:35:54;20.37;;;12.20;;
5718;SDS011;2884;47.734;9.244;2022-12-05T08:38:19;17.77;;;10.50;;
5718;SDS011;2884;47.734;9.244;2022-12-05T08:40:45;15.37;;;10.50;;
5718;SDS011;2884;47.734;9.244;2022-12-05T08:43:12;21.30;;;11.13;;
5718;SDS011;2884;47.734;9.244;2022-12-05T08:45:37;19.42;;;10.57;;
5718;SDS011;2884;47.734;9.244;2022-12-05T08:48:03;18.43;;;10.17;;
5718;SDS011;2884;47.734;9.244;2022-12-05T08:50:29;16.97;;;9.90;;
5718;SDS011;2884;47.734;9.244;2022-12-05T08:52:55;10.70;;;7.10;;
5718;SDS011;2884;47.734;9.244;2022-12-05T08:55:20;13.40;;;4.40;;
5718;SDS011;2884;47.734;9.244;2022-12-05T08:57:46;4.13;;;3.73;;
5718;SDS011;2884;47.734;9.244;2022-12-05T09:00:11;3.87;;;3.47;;
5718;SDS011;2884;47.734;9.244;2022-12-05T09:02:37;4.32;;;3.38;;
5718;SDS011;2884;47.734;9.244;2022-12-05T09:05:03;3.47;;;3.13;;
5718;SDS011;2884;47.734;9.244;2022-12-05T09:07:29;4.20;;;3.63;;
5718;SDS011;2884;47.734;9.244;2022-12-05T09:09:54;3.30;;;2.83;;
5718;SDS011;2884;47.734;9.244;2022-12-05T09:12:20;4.17;;;2.83;;
5718;SDS011;2884;47.734;9.244;2022-12-05T09:14:45;2.77;;;2.57;;
5718;SDS011;2884;47.734;9.244;2022-12-05T09:17:10;8.33;;;6.43;;
5718;SDS011;2884;47.734;9.244;2022-12-05T09:19:36;13.10;;;7.53;;
5718;SDS011;2884;47.734;9.244;2022-12-05T09:22:03;19.63;;;9.13;;
5718;SDS011;2884;47.734;9.244;2022-12-05T09:24:28;16.38;;;8.20;;
5718;SDS011;2884;47.734;9.244;2022-12-05T09:26:54;6.10;;;5.20;;
5718;SDS011;2884;47.734;9.244;2022-12-05T09:29:20;6.17;;;5.07;;
5718;SDS011;2884;47.734;9.244;2022-12-05T09:31:46;7.37;;;4.80;;
5718;SDS011;2884;47.734;9.244;2022-12-05T09:34:12;9.75;;;5.80;;
5718;SDS011;2884;47.734;9.244;2022-12-05T09:36:39;5.45;;;4.95;;
5718;SDS011;2884;47.734;9.244;2022-12-05T09:39:05;7.30;;;5.33;;
5718;SDS011;2884;47.734;9.244;2022-12-05T09:50:11;8.38;;;6.60;;
5718;SDS011;2884;47.734;9.244;2022-12-05T09:55:52;8.27;;;5.82;;
5718;SDS011;2884;47.734;9.244;2022-12-05T10:07:00;6.90;;;4.88;;
5718;SDS011;2884;47.734;9.244;2022-12-05T10:20:45;4.63;;;4.00;;
5718;SDS011;2884;47.734;9.244;2022-12-05T10:23:17;3.35;;;3.05;;
5718;SDS011;2884;47.734;9.244;2022-12-05T10:25:47;1.92;;;1.83;;
5718;SDS011;2884;47.734;9.244;2022-12-05T10:28:26;4.70;;;3.53;;
5718;SDS011;2884;47.734;9.244;2022-12-05T10:30:55;3.13;;;2.92;;
5718;SDS011;2884;47.734;9.244;2022-12-05T10:33:21;4.00;;;3.60;;
5718;SDS011;2884;47.734;9.244;2022-12-05T10:35:47;3.22;;;2.95;;
5718;SDS011;2884;47.734;9.244;2022-12-05T10:40:59;3.03;;;2.75;;
5718;SDS011;2884;47.734;9.244;2022-12-05T10:43:29;3.30;;;3.05;;
5718;SDS011;2884;47.734;9.244;2022-12-05T10:45:56;4.32;;;2.80;;
5718;SDS011;2884;47.734;9.244;2022-12-05T10:48:22;3.10;;;2.90;;
5718;SDS011;2884;47.734;9.244;2022-12-05T10:50:49;3.67;;;3.20;;
5718;SDS011;2884;47.734;9.244;2022-12-05T10:53:18;3.42;;;3.13;;
5718;SDS011;2884;47.734;9.244;2022-12-05T10:55:52;3.10;;;2.90;;
5718;SDS011;2884;47.734;9.244;2022-12-05T10:58:19;3.33;;;2.90;;
5718;SDS011;2884;47.734;9.244;2022-12-05T11:00:49;4.43;;;4.03;;
5718;SDS011;2884;47.734;9.244;2022-12-05T11:03:33;4.57;;;3.22;;
5718;SDS011;2884;47.734;9.244;2022-12-05T11:06:01;2.78;;;2.58;;
5718;SDS011;2884;47.734;9.244;2022-12-05T11:08:38;3.20;;;2.90;;
5718;SDS011;2884;47.734;9.244;2022-12-05T11:11:04;5.53;;;3.17;;
5718;SDS011;2884;47.734;9.244;2022-12-05T11:13:32;6.35;;;4.70;;
5718;SDS011;2884;47.734;9.244;2022-12-05T11:15:59;5.70;;;4.93;;
5718;SDS011;2884;47.734;9.244;2022-12-05T11:18:26;5.13;;;4.22;;
5718;SDS011;2884;47.734;9.244;2022-12-05T11:20:53;5.45;;;4.03;;
5718;SDS011;2884;47.734;9.244;2022-12-05T11:23:24;3.40;;;3.10;;
5718;SDS011;2884;47.734;9.244;2022-12-05T11:25:52;3.72;;;3.42;;
5718;SDS011;2884;47.734;9.244;2022-12-05T11:33:29;2.88;;;2.60;;
5718;SDS011;2884;47.734;9.244;2022-12-05T11:36:30;2.10;;;2.00;;
5718;SDS011;2884;47.734;9.244;2022-12-05T11:38:48;2.55;;;2.35;;
5718;SDS011;2884;47.734;9.244;2022-12-05T11:53:10;2.00;;;1.90;;
5718;SDS011;2884;47.734;9.244;2022-12-05T11:57:06;1.43;;;1.33;;
5718;SDS011;2884;47.734;9.244;2022-12-05T12:10:04;2.50;;;1.40;;
5718;SDS011;2884;47.734;9.244;2022-12-05T12:12:33;1.13;;;1.03;;
5718;SDS011;2884;47.734;9.244;2022-12-05T12:15:14;1.00;;;1.00;;
5718;SDS011;2884;47.734;9.244;2022-12-05T12:23:13;6.13;;;1.70;;
5718;SDS011;2884;47.734;9.244;2022-12-05T12:25:51;1.70;;;1.60;;
5718;SDS011;2884;47.734;9.244;2022-12-05T12:28:26;3.23;;;2.03;;
5718;SDS011;2884;47.734;9.244;2022-12-05T12:33:31;1.97;;;1.87;;
5718;SDS011;2884;47.734;9.244;2022-12-05T12:36:16;2.50;;;1.90;;
5718;SDS011;2884;47.734;9.244;2022-12-05T12:51:51;2.60;;;2.40;;
5718;SDS011;2884;47.734;9.244;2022-12-05T12:54:21;4.15;;;2.55;;
5718;SDS011;2884;47.734;9.244;2022-12-05T12:57:01;2.90;;;2.50;;
5718;SDS011;2884;47.734;9.244;2022-12-05T13:10:40;2.93;;;2.73;;
5718;SDS011;2884;47.734;9.244;2022-12-05T13:13:09;2.70;;;2.50;;
5718;SDS011;2884;47.734;9.244;2022-12-05T13:15:45;2.80;;;2.60;;
5718;SDS011;2884;47.734;9.244;2022-12-05T13:18:15;7.50;;;4.50;;
5718;SDS011;2884;47.734;9.244;2022-12-05T13:20:42;2.97;;;2.07;;
5718;SDS011;2884;47.734;9.244;2022-12-05T13:23:11;2.03;;;1.87;;
5718;SDS011;2884;47.734;9.244;2022-12-05T13:25:39;2.97;;;1.93;;
5718;SDS011;2884;47.734;9.244;2022-12-05T13:28:15;1.80;;;1.70;;
5718;SDS011;2884;47.734;9.244;2022-12-05T13:30:52;2.10;;;2.00;;
5718;SDS011;2884;47.734;9.244;2022-12-05T13:33:31;2.17;;;1.97;;
5718;SDS011;2884;47.734;9.244;2022-12-05T13:36:04;2.90;;;2.23;;
5718;SDS011;2884;47.734;9.244;2022-12-05T13:38:54;2.30;;;2.20;;
5718;SDS011;2884;47.734;9.244;2022-12-05T13:41:41;6.10;;;2.10;;
5718;SDS011;2884;47.734;9.244;2022-12-05T13:44:29;7.03;;;2.40;;
5718;SDS011;2884;47.734;9.244;2022-12-05T13:47:00;2.53;;;2.33;;
5718;SDS011;2884;47.734;9.244;2022-12-05T13:49:42;2.43;;;2.23;;
5718;SDS011;2884;47.734;9.244;2022-12-05T13:52:11;2.93;;;2.63;;
5718;SDS011;2884;47.734;9.244;2022-12-05T13:54:40;3.00;;;2.70;;
5718;SDS011;2884;47.734;9.244;2022-12-05T13:57:13;5.63;;;4.10;;
5718;SDS011;2884;47.734;9.244;2022-12-05T14:00:19;4.97;;;3.00;;
5718;SDS011;2884;47.734;9.244;2022-12-05T14:02:47;4.00;;;2.10;;
5718;SDS011;2884;47.734;9.244;2022-12-05T14:07:55;1.90;;;1.80;;
5718;SDS011;2884;47.734;9.244;2022-12-05T14:10:22;2.00;;;1.53;;
5718;SDS011;2884;47.734;9.244;2022-12-05T14:15:53;1.73;;;1.17;;
5718;SDS011;2884;47.734;9.244;2022-12-05T14:24:23;1.87;;;1.77;;
5718;SDS011;2884;47.734;9.244;2022-12-05T14:27:05;3.07;;;2.30;;
5718;SDS011;2884;47.734;9.244;2022-12-05T14:29:42;3.37;;;1.90;;
5718;SDS011;2884;47.734;9.244;2022-12-05T14:32:28;3.03;;;2.50;;
5718;SDS011;2884;47.734;9.244;2022-12-05T14:40:28;2.47;;;2.27;;
5718;SDS011;2884;47.734;9.244;2022-12-05T14:43:16;2.93;;;2.37;;
5718;SDS011;2884;47.734;9.244;2022-12-05T14:46:04;2.87;;;2.60;;
5718;SDS011;2884;47.734;9.244;2022-12-05T14:48:39;4.30;;;2.70;;
5718;SDS011;2884;47.734;9.244;2022-12-05T14:56:48;2.73;;;2.53;;
5718;SDS011;2884;47.734;9.244;2022-12-05T14:59:42;2.87;;;2.60;;
5718;SDS011;2884;47.734;9.244;2022-12-05T15:02:15;4.32;;;2.80;;
5718;SDS011;2884;47.734;9.244;2022-12-05T15:04:46;4.20;;;2.60;;
5718;SDS011;2884;47.734;9.244;2022-12-05T15:07:18;2.60;;;2.40;;
5718;SDS011;2884;47.734;9.244;2022-12-05T15:12:37;3.20;;;2.90;;
5718;SDS011;2884;47.734;9.244;2022-12-05T15:18:07;8.98;;;5.70;;
5718;SDS011;2884;47.734;9.244;2022-12-05T15:20:48;4.60;;;3.90;;
5718;SDS011;2884;47.734;9.244;2022-12-05T15:26:32;2.85;;;2.60;;
5718;SDS011;2884;47.734;9.244;2022-12-05T15:29:02;3.78;;;2.78;;
5718;SDS011;2884;47.734;9.244;2022-12-05T15:31:46;3.35;;;2.33;;
5718;SDS011;2884;47.734;9.244;2022-12-05T15:40:20;7.00;;;5.57;;
5718;SDS011;2884;47.734;9.244;2022-12-05T15:42:47;12.30;;;8.07;;
5718;SDS011;2884;47.734;9.244;2022-12-05T15:45:19;9.23;;;6.07;;
5718;SDS011;2884;47.734;9.244;2022-12-05T15:47:51;5.75;;;4.68;;
5718;SDS011;2884;47.734;9.244;2022-12-05T15:58:28;5.68;;;4.40;;
5718;SDS011;2884;47.734;9.244;2022-12-05T16:00:57;10.13;;;5.07;;
5718;SDS011;2884;47.734;9.244;2022-12-05T16:03:37;6.90;;;5.25;;
5718;SDS011;2884;47.734;9.244;2022-12-05T16:06:05;7.70;;;5.45;;
5718;SDS011;2884;47.734;9.244;2022-12-05T16:08:35;6.00;;;5.00;;
5718;SDS011;2884;47.734;9.244;2022-12-05T16:11:07;5.93;;;4.25;;
5718;SDS011;2884;47.734;9.244;2022-12-05T16:13:36;8.82;;;6.05;;
5718;SDS011;2884;47.734;9.244;2022-12-05T16:16:07;9.85;;;7.65;;
5718;SDS011;2884;47.734;9.244;2022-12-05T16:18:33;7.90;;;6.30;;
5718;SDS011;2884;47.734;9.244;2022-12-05T16:20:58;8.63;;;6.80;;
5718;SDS011;2884;47.734;9.244;2022-12-05T16:23:28;5.60;;;4.70;;
5718;SDS011;2884;47.734;9.244;2022-12-05T16:26:40;6.40;;;5.32;;
5718;SDS011;2884;47.734;9.244;2022-12-05T16:28:57;6.85;;;5.07;;
5718;SDS011;2884;47.734;9.244;2022-12-05T16:31:23;5.47;;;4.45;;
5718;SDS011;2884;47.734;9.244;2022-12-05T16:33:58;6.80;;;4.83;;
5718;SDS011;2884;47.734;9.244;2022-12-05T16:36:24;9.55;;;4.70;;
5718;SDS011;2884;47.734;9.244;2022-12-05T16:38:50;5.10;;;4.60;;
5718;SDS011;2884;47.734;9.244;2022-12-05T16:41:31;3.65;;;3.35;;
5718;SDS011;2884;47.734;9.244;2022-12-05T16:44:01;5.72;;;4.65;;
5718;SDS011;2884;47.734;9.244;2022-12-05T16:46:49;6.93;;;6.03;;
5718;SDS011;2884;47.734;9.244;2022-12-05T16:49:15;11.00;;;6.65;;
5718;SDS011;2884;47.734;9.244;2022-12-05T16:52:20;13.73;;;9.50;;
5718;SDS011;2884;47.734;9.244;2022-12-05T16:54:40;9.77;;;8.70;;
5718;SDS011;2884;47.734;9.244;2022-12-05T16:57:08;5.50;;;5.00;;
5718;SDS011;2884;47.734;9.244;2022-12-05T16:59:37;6.55;;;4.75;;
5718;SDS011;2884;47.734;9.244;2022-12-05T17:02:05;7.88;;;6.47;;
5718;SDS011;2884;47.734;9.244;2022-12-05T17:04:34;10.70;;;8.50;;
5718;SDS011;2884;47.734;9.244;2022-12-05T17:06:59;14.77;;;10.60;;
5718;SDS011;2884;47.734;9.244;2022-12-05T17:09:25;6.00;;;4.53;;
5718;SDS011;2884;47.734;9.244;2022-12-05T17:11:51;5.80;;;5.20;;
5718;SDS011;2884;47.734;9.244;2022-12-05T17:14:18;5.32;;;4.53;;
5718;SDS011;2884;47.734;9.244;2022-12-05T17:16:44;4.43;;;4.03;;
5718;SDS011;2884;47.734;9.244;2022-12-05T17:19:10;5.80;;;4.73;;
5718;SDS011;2884;47.734;9.244;2022-12-05T17:21:36;8.80;;;7.93;;
5718;SDS011;2884;47.734;9.244;2022-12-05T17:24:02;10.32;;;7.93;;
5718;SDS011;2884;47.734;9.244;2022-12-05T17:26:28;13.80;;;8.97;;
5718;SDS011;2884;47.734;9.244;2022-12-05T17:28:54;7.83;;;6.10;;
5718;SDS011;2884;47.734;9.244;2022-12-05T17:31:20;6.87;;;5.70;;
5718;SDS011;2884;47.734;9.244;2022-12-05T17:33:47;10.27;;;6.38;;
5718;SDS011;2884;47.734;9.244;2022-12-05T17:36:13;8.93;;;6.80;;
5718;SDS011;2884;47.734;9.244;2022-12-05T17:38:39;7.22;;;5.90;;
5718;SDS011;2884;47.734;9.244;2022-12-05T17:41:05;9.40;;;5.07;;
5718;SDS011;2884;47.734;9.244;2022-12-05T17:43:31;6.23;;;5.03;;
5718;SDS011;2884;47.734;9.244;2022-12-05T17:46:00;6.65;;;6.00;;
5718;SDS011;2884;47.734;9.244;2022-12-05T17:48:26;8.25;;;7.07;;
5718;SDS011;2884;47.734;9.244;2022-12-05T17:50:52;6.57;;;5.97;;
5718;SDS011;2884;47.734;9.244;2022-12-05T17:53:18;13.30;;;7.50;;
5718;SDS011;2884;47.734;9.244;2022-12-05T17:55:45;10.35;;;7.95;;
5718;SDS011;2884;47.734;9.244;2022-12-05T17:58:12;8.55;;;7.60;;